Fiambala, Argentina
Current Conditions -  °F | °C
As of 7:00 AM on Monday 22 Dec 2014 (Local Time) from SANT Reporting Station
Overcast Overcast  
Wind Chill: 59°   Ceiling: 10000
Heat Index: 59°   Visibility: 4mi
Dew Point: 55°   Wind: 5mph
Humidity: 88%   Direction: 270°W
Pressure: 30.18"   Gusts: NA
Location:  27.68°S, 67.63°W
Report Text: SANT 221000Z 27004KT 7000 FEW020 SCT035OVC100 15/13 Q1022
Loading
Personal Weather Stations






























Interactive Weather Map New forecast layout! Learn more

10-Day Weather Forecast

Advertisements
Track Severe Weather on mobile